sensor_id;sensor_type;location;lat;lon;timestamp;pressure;altitude;pressure_sealevel;temperature;humidity
13414;BME280;6778;48.136;11.386;2023-02-13T00:00:43;97174.88;;;2.07;100.00
13414;BME280;6778;48.136;11.386;2023-02-13T00:03:13;97176.63;;;2.07;100.00
13414;BME280;6778;48.136;11.386;2023-02-13T00:05:43;97180.97;;;2.06;100.00
13414;BME280;6778;48.136;11.386;2023-02-13T00:08:13;97174.84;;;1.96;100.00
13414;BME280;6778;48.136;11.386;2023-02-13T00:10:43;97176.63;;;1.96;100.00
13414;BME280;6778;48.136;11.386;2023-02-13T00:13:15;97173.81;;;1.87;100.00
13414;BME280;6778;48.136;11.386;2023-02-13T00:15:54;97172.25;;;1.74;100.00
13414;BME280;6778;48.136;11.386;2023-02-13T00:18:24;97168.38;;;1.68;100.00
13414;BME280;6778;48.136;11.386;2023-02-13T00:20:59;97168.03;;;1.73;100.00
13414;BME280;6778;48.136;11.386;2023-02-13T00:23:31;97163.94;;;1.81;100.00
13414;BME280;6778;48.136;11.386;2023-02-13T00:26:06;97161.59;;;1.78;100.00
13414;BME280;6778;48.136;11.386;2023-02-13T00:28:42;97162.53;;;1.88;100.00
13414;BME280;6778;48.136;11.386;2023-02-13T00:31:18;97152.78;;;1.70;100.00
13414;BME280;6778;48.136;11.386;2023-02-13T00:33:49;97155.22;;;1.60;100.00
13414;BME280;6778;48.136;11.386;2023-02-13T00:36:21;97148.91;;;1.64;100.00
13414;BME280;6778;48.136;11.386;2023-02-13T00:38:52;97150.66;;;1.75;100.00
13414;BME280;6778;48.136;11.386;2023-02-13T00:41:23;97155.94;;;1.73;100.00
13414;BME280;6778;48.136;11.386;2023-02-13T00:43:53;97150.88;;;1.60;100.00
13414;BME280;6778;48.136;11.386;2023-02-13T00:46:26;97154.28;;;1.61;100.00
13414;BME280;6778;48.136;11.386;2023-02-13T00:48:57;97153.34;;;1.62;100.00
13414;BME280;6778;48.136;11.386;2023-02-13T00:51:27;97148.53;;;1.69;100.00
13414;BME280;6778;48.136;11.386;2023-02-13T00:53:57;97148.31;;;1.72;100.00
13414;BME280;6778;48.136;11.386;2023-02-13T00:56:27;97152.66;;;1.60;100.00
13414;BME280;6778;48.136;11.386;2023-02-13T00:58:58;97142.91;;;1.75;100.00
13414;BME280;6778;48.136;11.386;2023-02-13T01:01:30;97148.44;;;1.70;100.00
13414;BME280;6778;48.136;11.386;2023-02-13T01:04:01;97145.88;;;1.70;100.00
13414;BME280;6778;48.136;11.386;2023-02-13T01:06:31;97143.16;;;1.72;100.00
13414;BME280;6778;48.136;11.386;2023-02-13T01:09:03;97150.53;;;1.65;100.00
13414;BME280;6778;48.136;11.386;2023-02-13T01:11:35;97146.44;;;1.74;100.00
13414;BME280;6778;48.136;11.386;2023-02-13T01:14:05;97144.91;;;1.82;100.00
13414;BME280;6778;48.136;11.386;2023-02-13T01:16:38;97147.41;;;1.84;100.00
13414;BME280;6778;48.136;11.386;2023-02-13T01:19:08;97146.22;;;1.88;100.00
13414;BME280;6778;48.136;11.386;2023-02-13T01:21:38;97145.25;;;1.89;100.00
13414;BME280;6778;48.136;11.386;2023-02-13T01:24:08;97145.50;;;1.86;100.00
13414;BME280;6778;48.136;11.386;2023-02-13T01:26:39;97143.41;;;1.91;100.00
13414;BME280;6778;48.136;11.386;2023-02-13T01:29:13;97143.41;;;1.91;100.00
13414;BME280;6778;48.136;11.386;2023-02-13T01:31:46;97139.97;;;2.02;100.00
13414;BME280;6778;48.136;11.386;2023-02-13T01:34:17;97143.16;;;2.05;100.00
13414;BME280;6778;48.136;11.386;2023-02-13T01:36:47;97142.91;;;2.08;100.00
13414;BME280;6778;48.136;11.386;2023-02-13T01:39:17;97139.75;;;2.05;100.00
13414;BME280;6778;48.136;11.386;2023-02-13T01:41:47;97137.06;;;2.17;100.00
13414;BME280;6778;48.136;11.386;2023-02-13T01:44:44;97132.94;;;2.15;100.00
13414;BME280;6778;48.136;11.386;2023-02-13T01:47:24;97137.75;;;2.08;100.00
13414;BME280;6778;48.136;11.386;2023-02-13T01:50:04;97145.50;;;2.08;100.00
13414;BME280;6778;48.136;11.386;2023-02-13T01:52:40;97141.06;;;1.99;100.00
13414;BME280;6778;48.136;11.386;2023-02-13T01:55:16;97139.03;;;2.03;100.00
13414;BME280;6778;48.136;11.386;2023-02-13T01:57:52;97141.38;;;2.28;100.00
13414;BME280;6778;48.136;11.386;2023-02-13T02:00:30;97137.63;;;2.21;100.00
13414;BME280;6778;48.136;11.386;2023-02-13T02:03:11;97138.44;;;2.22;100.00
13414;BME280;6778;48.136;11.386;2023-02-13T02:05:42;97132.59;;;2.19;100.00
13414;BME280;6778;48.136;11.386;2023-02-13T02:08:14;97138.69;;;2.07;100.00
13414;BME280;6778;48.136;11.386;2023-02-13T02:10:51;97145.97;;;2.13;100.00
13414;BME280;6778;48.136;11.386;2023-02-13T02:13:25;97146.22;;;2.10;100.00
13414;BME280;6778;48.136;11.386;2023-02-13T02:16:02;97137.63;;;2.21;100.00
13414;BME280;6778;48.136;11.386;2023-02-13T02:18:34;97149.25;;;2.27;100.00
13414;BME280;6778;48.136;11.386;2023-02-13T02:21:40;97148.53;;;2.36;100.00
13414;BME280;6778;48.136;11.386;2023-02-13T02:24:59;97148.31;;;2.28;100.00
13414;BME280;6778;48.136;11.386;2023-02-13T02:27:58;97143.50;;;2.23;100.00
13414;BME280;6778;48.136;11.386;2023-02-13T02:31:09;97144.19;;;2.36;100.00
13414;BME280;6778;48.136;11.386;2023-02-13T02:34:03;97148.06;;;2.42;100.00
13414;BME280;6778;48.136;11.386;2023-02-13T02:36:55;97142.41;;;2.37;100.00
13414;BME280;6778;48.136;11.386;2023-02-13T02:39:42;97141.50;;;2.38;100.00
13414;BME280;6778;48.136;11.386;2023-02-13T02:42:27;97145.13;;;2.35;100.00
13414;BME280;6778;48.136;11.386;2023-02-13T02:45:09;97146.88;;;2.35;100.00
13414;BME280;6778;48.136;11.386;2023-02-13T02:47:53;97149.69;;;2.43;100.00
13414;BME280;6778;48.136;11.386;2023-02-13T02:50:56;97147.97;;;2.32;100.00
13414;BME280;6778;48.136;11.386;2023-02-13T02:53:36;97145.00;;;2.37;100.00
13414;BME280;6778;48.136;11.386;2023-02-13T02:56:16;97150.91;;;2.28;100.00
13414;BME280;6778;48.136;11.386;2023-02-13T02:58:52;97148.78;;;2.22;100.00
13414;BME280;6778;48.136;11.386;2023-02-13T03:01:38;97154.69;;;2.24;100.00
13414;BME280;6778;48.136;11.386;2023-02-13T03:04:39;97145.16;;;2.24;100.00
13414;BME280;6778;48.136;11.386;2023-02-13T03:07:26;97142.78;;;2.21;100.00
13414;BME280;6778;48.136;11.386;2023-02-13T03:09:58;97146.06;;;2.23;100.00
13414;BME280;6778;48.136;11.386;2023-02-13T03:12:48;97140.69;;;2.15;100.00
13414;BME280;6778;48.136;11.386;2023-02-13T03:15:34;97135.75;;;2.12;100.00
13414;BME280;6778;48.136;11.386;2023-02-13T03:18:26;97148.09;;;2.08;100.00
13414;BME280;6778;48.136;11.386;2023-02-13T03:21:15;97141.75;;;2.12;100.00
13414;BME280;6778;48.136;11.386;2023-02-13T03:24:09;97139.63;;;1.95;100.00
13414;BME280;6778;48.136;11.386;2023-02-13T03:26:52;97146.09;;;1.89;100.00
13414;BME280;6778;48.136;11.386;2023-02-13T03:29:40;97155.16;;;2.06;100.00
13414;BME280;6778;48.136;11.386;2023-02-13T03:32:34;97149.03;;;2.07;100.00
13414;BME280;6778;48.136;11.386;2023-02-13T03:35:20;97157.00;;;2.15;100.00
13414;BME280;6778;48.136;11.386;2023-02-13T03:38:10;97151.03;;;2.15;100.00
13414;BME280;6778;48.136;11.386;2023-02-13T03:40:49;97153.13;;;2.10;100.00
13414;BME280;6778;48.136;11.386;2023-02-13T03:43:40;97157.84;;;2.05;100.00
13414;BME280;6778;48.136;11.386;2023-02-13T03:46:14;97159.59;;;2.15;100.00
13414;BME280;6778;48.136;11.386;2023-02-13T03:48:46;97157.00;;;2.27;100.00
13414;BME280;6778;48.136;11.386;2023-02-13T03:51:36;97154.91;;;2.21;100.00
13414;BME280;6778;48.136;11.386;2023-02-13T03:54:17;97162.09;;;2.17;100.00
13414;BME280;6778;48.136;11.386;2023-02-13T03:57:04;97155.25;;;2.05;100.00
13414;BME280;6778;48.136;11.386;2023-02-13T03:59:49;97156.69;;;1.98;100.00
13414;BME280;6778;48.136;11.386;2023-02-13T04:02:24;97157.38;;;2.00;100.00
13414;BME280;6778;48.136;11.386;2023-02-13T04:05:07;97164.06;;;2.02;100.00
13414;BME280;6778;48.136;11.386;2023-02-13T04:07:40;97167.97;;;1.97;100.00
13414;BME280;6778;48.136;11.386;2023-02-13T04:10:13;97164.44;;;1.98;100.00
13414;BME280;6778;48.136;11.386;2023-02-13T04:12:56;97160.44;;;2.05;100.00
13414;BME280;6778;48.136;11.386;2023-02-13T04:15:35;97169.00;;;2.16;100.00
13414;BME280;6778;48.136;11.386;2023-02-13T04:18:13;97170.66;;;2.06;100.00
13414;BME280;6778;48.136;11.386;2023-02-13T04:20:44;97163.94;;;1.81;100.00
13414;BME280;6778;48.136;11.386;2023-02-13T04:23:15;97163.59;;;1.86;100.00
13414;BME280;6778;48.136;11.386;2023-02-13T04:25:49;97173.78;;;1.65;100.00
13414;BME280;6778;48.136;11.386;2023-02-13T04:28:26;97178.41;;;1.84;100.00
13414;BME280;6778;48.136;11.386;2023-02-13T04:30:56;97167.59;;;1.79;100.00
13414;BME280;6778;48.136;11.386;2023-02-13T04:33:27;97165.13;;;1.77;100.00
13414;BME280;6778;48.136;11.386;2023-02-13T04:35:58;97167.34;;;1.71;100.00
13414;BME280;6778;48.136;11.386;2023-02-13T04:38:28;97168.88;;;1.73;100.00
13414;BME280;6778;48.136;11.386;2023-02-13T04:40:58;97166.84;;;1.66;100.00
13414;BME280;6778;48.136;11.386;2023-02-13T04:43:31;97168.47;;;1.55;100.00
13414;BME280;6778;48.136;11.386;2023-02-13T04:46:02;97171.13;;;1.31;100.00
13414;BME280;6778;48.136;11.386;2023-02-13T04:48:35;97167.16;;;1.39;100.00
13414;BME280;6778;48.136;11.386;2023-02-13T04:51:10;97163.38;;;1.31;100.00
13414;BME280;6778;48.136;11.386;2023-02-13T04:53:44;97167.28;;;1.37;100.00
13414;BME280;6778;48.136;11.386;2023-02-13T04:56:18;97168.72;;;1.52;100.00
13414;BME280;6778;48.136;11.386;2023-02-13T04:58:51;97165.44;;;1.50;100.00
13414;BME280;6778;48.136;11.386;2023-02-13T05:01:22;97162.88;;;1.73;100.00
13414;BME280;6778;48.136;11.386;2023-02-13T05:03:52;97164.25;;;1.54;100.00
13414;BME280;6778;48.136;11.386;2023-02-13T05:06:22;97170.97;;;1.57;100.00
13414;BME280;6778;48.136;11.386;2023-02-13T05:08:52;97176.63;;;1.27;100.00
13414;BME280;6778;48.136;11.386;2023-02-13T05:11:22;97175.09;;;1.24;100.00
13414;BME280;6778;48.136;11.386;2023-02-13T05:13:55;97172.28;;;1.27;100.00
13414;BME280;6778;48.136;11.386;2023-02-13T05:16:25;97168.28;;;1.23;100.00
13414;BME280;6778;48.136;11.386;2023-02-13T05:18:56;97165.16;;;1.42;100.00
13414;BME280;6778;48.136;11.386;2023-02-13T05:21:26;97171.38;;;1.40;100.00
13414;BME280;6778;48.136;11.386;2023-02-13T05:24:09;97169.16;;;1.46;100.00
13414;BME280;6778;48.136;11.386;2023-02-13T05:26:39;97168.53;;;1.31;100.00
13414;BME280;6778;48.136;11.386;2023-02-13T05:29:11;97171.50;;;1.38;100.00
13414;BME280;6778;48.136;11.386;2023-02-13T05:31:51;97170.22;;;1.44;100.00
13414;BME280;6778;48.136;11.386;2023-02-13T05:34:23;97184.91;;;1.19;100.00
13414;BME280;6778;48.136;11.386;2023-02-13T05:36:54;97178.63;;;1.23;100.00
13414;BME280;6778;48.136;11.386;2023-02-13T05:39:24;97178.34;;;1.50;100.00
13414;BME280;6778;48.136;11.386;2023-02-13T05:41:54;97181.59;;;1.41;100.00
13414;BME280;6778;48.136;11.386;2023-02-13T05:44:27;97176.91;;;1.46;100.00
13414;BME280;6778;48.136;11.386;2023-02-13T05:46:58;97182.63;;;1.39;100.00
13414;BME280;6778;48.136;11.386;2023-02-13T05:49:28;97186.66;;;1.54;100.00
13414;BME280;6778;48.136;11.386;2023-02-13T05:51:59;97184.69;;;1.69;100.00
13414;BME280;6778;48.136;11.386;2023-02-13T05:54:29;97188.13;;;1.80;99.65
13414;BME280;6778;48.136;11.386;2023-02-13T05:56:59;97189.44;;;1.86;99.40
13414;BME280;6778;48.136;11.386;2023-02-13T05:59:34;97194.47;;;1.76;99.18
13414;BME280;6778;48.136;11.386;2023-02-13T06:02:06;97190.72;;;1.80;100.00
13414;BME280;6778;48.136;11.386;2023-02-13T06:04:36;97195.06;;;1.80;100.00
13414;BME280;6778;48.136;11.386;2023-02-13T06:07:07;97196.34;;;1.85;99.82
13414;BME280;6778;48.136;11.386;2023-02-13T06:09:40;97191.53;;;1.81;99.71
13414;BME280;6778;48.136;11.386;2023-02-13T06:12:10;97204.53;;;1.68;99.51
13414;BME280;6778;48.136;11.386;2023-02-13T06:14:45;97201.28;;;1.77;100.00
13414;BME280;6778;48.136;11.386;2023-02-13T06:17:15;97207.38;;;1.06;100.00
13414;BME280;6778;48.136;11.386;2023-02-13T06:19:46;97209.91;;;1.54;100.00
13414;BME280;6778;48.136;11.386;2023-02-13T06:22:16;97211.47;;;1.32;100.00
13414;BME280;6778;48.136;11.386;2023-02-13T06:24:47;97216.94;;;1.17;100.00
13414;BME280;6778;48.136;11.386;2023-02-13T06:27:17;97212.88;;;1.25;100.00
13414;BME280;6778;48.136;11.386;2023-02-13T06:29:50;97213.28;;;1.43;100.00
13414;BME280;6778;48.136;11.386;2023-02-13T06:32:20;97222.69;;;1.55;100.00
13414;BME280;6778;48.136;11.386;2023-02-13T06:34:50;97221.94;;;1.31;100.00
13414;BME280;6778;48.136;11.386;2023-02-13T06:37:21;97223.25;;;1.36;100.00
13414;BME280;6778;48.136;11.386;2023-02-13T06:39:51;97224.34;;;1.21;100.00
13414;BME280;6778;48.136;11.386;2023-02-13T06:42:22;97222.38;;;1.25;100.00
13414;BME280;6778;48.136;11.386;2023-02-13T06:44:55;97219.09;;;1.34;100.00
13414;BME280;6778;48.136;11.386;2023-02-13T06:47:25;97223.69;;;1.30;100.00
13414;BME280;6778;48.136;11.386;2023-02-13T06:49:56;97222.47;;;0.99;100.00
13414;BME280;6778;48.136;11.386;2023-02-13T06:52:26;97232.97;;;1.09;100.00
13414;BME280;6778;48.136;11.386;2023-02-13T06:54:56;97229.41;;;1.23;100.00
13414;BME280;6778;48.136;11.386;2023-02-13T06:57:27;97232.84;;;1.34;100.00
13414;BME280;6778;48.136;11.386;2023-02-13T07:00:02;97240.25;;;1.39;99.71
13414;BME280;6778;48.136;11.386;2023-02-13T07:02:32;97240.13;;;1.41;99.71
13414;BME280;6778;48.136;11.386;2023-02-13T07:05:03;97239.72;;;1.23;100.00
13414;BME280;6778;48.136;11.386;2023-02-13T07:07:34;97239.09;;;1.43;99.96
13414;BME280;6778;48.136;11.386;2023-02-13T07:10:07;97240.13;;;1.41;100.00
13414;BME280;6778;48.136;11.386;2023-02-13T07:12:39;97251.53;;;1.38;100.00
13414;BME280;6778;48.136;11.386;2023-02-13T07:15:17;97253.16;;;1.63;100.00
13414;BME280;6778;48.136;11.386;2023-02-13T07:17:54;97251.63;;;1.72;99.17
13414;BME280;6778;48.136;11.386;2023-02-13T07:20:27;97254.59;;;1.78;98.49
13414;BME280;6778;48.136;11.386;2023-02-13T07:22:58;97252.50;;;1.83;97.68
13414;BME280;6778;48.136;11.386;2023-02-13T07:25:30;97258.03;;;1.55;98.56
13414;BME280;6778;48.136;11.386;2023-02-13T07:28:02;97248.59;;;1.89;98.41
13414;BME280;6778;48.136;11.386;2023-02-13T07:30:36;97256.47;;;1.76;97.37
13414;BME280;6778;48.136;11.386;2023-02-13T07:33:08;97256.09;;;1.81;97.18
13414;BME280;6778;48.136;11.386;2023-02-13T07:35:45;97251.31;;;1.87;97.30
13414;BME280;6778;48.136;11.386;2023-02-13T07:38:16;97254.72;;;1.88;97.13
13414;BME280;6778;48.136;11.386;2023-02-13T07:40:47;97264.38;;;1.97;96.53
13414;BME280;6778;48.136;11.386;2023-02-13T07:43:17;97270.03;;;1.67;97.17
13414;BME280;6778;48.136;11.386;2023-02-13T07:45:50;97262.97;;;1.58;98.74
13414;BME280;6778;48.136;11.386;2023-02-13T07:48:23;97261.53;;;1.43;98.60
13414;BME280;6778;48.136;11.386;2023-02-13T07:50:58;97275.00;;;1.46;99.36
13414;BME280;6778;48.136;11.386;2023-02-13T07:53:28;97275.56;;;1.39;99.97
13414;BME280;6778;48.136;11.386;2023-02-13T07:55:59;97279.06;;;1.61;99.63
13414;BME280;6778;48.136;11.386;2023-02-13T07:58:35;97275.31;;;1.66;98.43
13414;BME280;6778;48.136;11.386;2023-02-13T08:01:12;97283.69;;;1.45;99.19
13414;BME280;6778;48.136;11.386;2023-02-13T08:03:47;97282.38;;;1.75;99.84
13414;BME280;6778;48.136;11.386;2023-02-13T08:06:18;97281.34;;;2.68;98.74
13414;BME280;6778;48.136;11.386;2023-02-13T08:08:48;97285.91;;;2.76;94.77
13414;BME280;6778;48.136;11.386;2023-02-13T08:11:39;97284.06;;;2.44;95.53
13414;BME280;6778;48.136;11.386;2023-02-13T08:14:24;97291.69;;;2.80;94.81
13414;BME280;6778;48.136;11.386;2023-02-13T08:16:59;97283.28;;;3.10;92.70
13414;BME280;6778;48.136;11.386;2023-02-13T08:19:29;97283.28;;;3.21;90.88
13414;BME280;6778;48.136;11.386;2023-02-13T08:22:00;97278.28;;;2.86;91.48
13414;BME280;6778;48.136;11.386;2023-02-13T08:24:31;97290.00;;;2.11;92.61
13414;BME280;6778;48.136;11.386;2023-02-13T08:27:01;97285.00;;;2.32;93.88
13414;BME280;6778;48.136;11.386;2023-02-13T08:29:32;97288.59;;;2.30;93.65
13414;BME280;6778;48.136;11.386;2023-02-13T08:32:05;97290.75;;;2.81;92.24
13414;BME280;6778;48.136;11.386;2023-02-13T08:34:36;97291.44;;;2.27;94.05
13414;BME280;6778;48.136;11.386;2023-02-13T08:37:06;97285.97;;;3.19;91.62
13414;BME280;6778;48.136;11.386;2023-02-13T08:39:37;97282.28;;;2.56;91.70
13414;BME280;6778;48.136;11.386;2023-02-13T08:42:07;97286.09;;;1.95;94.75
13414;BME280;6778;48.136;11.386;2023-02-13T08:44:42;97284.03;;;2.33;94.65
13414;BME280;6778;48.136;11.386;2023-02-13T08:47:15;97279.69;;;2.67;92.59
13414;BME280;6778;48.136;11.386;2023-02-13T08:49:45;97274.94;;;3.06;91.17
13414;BME280;6778;48.136;11.386;2023-02-13T08:52:15;97280.81;;;3.08;90.20
13414;BME280;6778;48.136;11.386;2023-02-13T08:54:46;97286.25;;;2.15;93.12
13414;BME280;6778;48.136;11.386;2023-02-13T08:57:16;97287.44;;;2.11;94.91
13414;BME280;6778;48.136;11.386;2023-02-13T08:59:46;97282.59;;;2.07;94.17
13414;BME280;6778;48.136;11.386;2023-02-13T09:02:19;97289.56;;;1.82;95.05
13414;BME280;6778;48.136;11.386;2023-02-13T09:04:50;97280.00;;;2.07;95.99
13414;BME280;6778;48.136;11.386;2023-02-13T09:07:20;97288.25;;;1.66;96.90
13414;BME280;6778;48.136;11.386;2023-02-13T09:09:51;97285.06;;;2.08;95.48
13414;BME280;6778;48.136;11.386;2023-02-13T09:12:21;97292.38;;;1.44;97.68
13414;BME280;6778;48.136;11.386;2023-02-13T09:14:52;97293.97;;;1.58;98.69
13414;BME280;6778;48.136;11.386;2023-02-13T09:17:25;97299.66;;;2.21;96.90
13414;BME280;6778;48.136;11.386;2023-02-13T09:19:55;97299.78;;;2.30;94.50
13414;BME280;6778;48.136;11.386;2023-02-13T09:22:26;97303.50;;;2.15;94.65
13414;BME280;6778;48.136;11.386;2023-02-13T09:24:57;97302.63;;;2.38;93.84
13414;BME280;6778;48.136;11.386;2023-02-13T09:27:30;97304.50;;;2.47;93.17
13414;BME280;6778;48.136;11.386;2023-02-13T09:30:02;97305.09;;;2.51;92.98
13414;BME280;6778;48.136;11.386;2023-02-13T09:32:36;97306.97;;;2.38;93.07
13414;BME280;6778;48.136;11.386;2023-02-13T09:35:06;97310.09;;;2.30;93.58
13414;BME280;6778;48.136;11.386;2023-02-13T09:37:37;97308.50;;;2.40;93.15
13414;BME280;6778;48.136;11.386;2023-02-13T09:40:16;97308.22;;;2.21;94.93
13414;BME280;6778;48.136;11.386;2023-02-13T09:42:48;97305.88;;;2.29;94.21
13414;BME280;6778;48.136;11.386;2023-02-13T09:45:21;97307.88;;;2.14;94.38
13414;BME280;6778;48.136;11.386;2023-02-13T09:47:54;97295.59;;;2.52;93.59
13414;BME280;6778;48.136;11.386;2023-02-13T09:50:29;97296.38;;;2.63;92.51
13414;BME280;6778;48.136;11.386;2023-02-13T09:53:03;97288.38;;;2.78;92.28
13414;BME280;6778;48.136;11.386;2023-02-13T09:55:44;97295.81;;;2.37;92.51
13414;BME280;6778;48.136;11.386;2023-02-13T09:58:32;97297.03;;;2.09;94.46
13414;BME280;6778;48.136;11.386;2023-02-13T10:01:19;97294.41;;;2.67;93.85
13414;BME280;6778;48.136;11.386;2023-02-13T10:04:15;97295.69;;;2.39;92.63
13414;BME280;6778;48.136;11.386;2023-02-13T10:06:53;97298.00;;;2.19;93.38
13414;BME280;6778;48.136;11.386;2023-02-13T10:09:32;97305.53;;;2.34;93.91
13414;BME280;6778;48.136;11.386;2023-02-13T10:12:23;97301.81;;;2.71;91.82
13414;BME280;6778;48.136;11.386;2023-02-13T10:15:11;97299.44;;;2.24;92.78
13414;BME280;6778;48.136;11.386;2023-02-13T10:17:52;97307.78;;;2.38;92.84
13414;BME280;6778;48.136;11.386;2023-02-13T10:20:31;97310.06;;;2.08;94.38
13414;BME280;6778;48.136;11.386;2023-02-13T10:23:16;97296.59;;;2.27;93.47
13414;BME280;6778;48.136;11.386;2023-02-13T10:25:54;97295.44;;;2.31;94.35
13414;BME280;6778;48.136;11.386;2023-02-13T10:28:32;97302.59;;;1.81;95.89
13414;BME280;6778;48.136;11.386;2023-02-13T10:31:06;97294.69;;;2.06;96.46
13414;BME280;6778;48.136;11.386;2023-02-13T10:33:46;97300.28;;;2.46;93.68
13414;BME280;6778;48.136;11.386;2023-02-13T10:36:24;97294.34;;;2.22;94.36
13414;BME280;6778;48.136;11.386;2023-02-13T10:39:00;97290.41;;;2.74;93.04
13414;BME280;6778;48.136;11.386;2023-02-13T10:41:47;97291.78;;;2.89;91.83
13414;BME280;6778;48.136;11.386;2023-02-13T10:44:32;97292.63;;;2.45;93.76
13414;BME280;6778;48.136;11.386;2023-02-13T10:47:20;97284.06;;;2.78;92.74
13414;BME280;6778;48.136;11.386;2023-02-13T10:50:02;97293.91;;;2.28;93.07
13414;BME280;6778;48.136;11.386;2023-02-13T10:52:48;97287.19;;;2.03;95.03
13414;BME280;6778;48.136;11.386;2023-02-13T10:55:48;97283.56;;;2.51;93.61
13414;BME280;6778;48.136;11.386;2023-02-13T10:58:33;97281.22;;;2.70;91.99
13414;BME280;6778;48.136;11.386;2023-02-13T11:01:15;97278.28;;;2.41;93.41
13414;BME280;6778;48.136;11.386;2023-02-13T11:04:02;97268.41;;;2.68;92.13
13414;BME280;6778;48.136;11.386;2023-02-13T11:06:35;97270.16;;;2.57;91.98
13414;BME280;6778;48.136;11.386;2023-02-13T11:09:09;97273.31;;;2.94;91.62
13414;BME280;6778;48.136;11.386;2023-02-13T11:11:41;97269.47;;;2.66;91.33
13414;BME280;6778;48.136;11.386;2023-02-13T11:14:14;97267.44;;;2.92;91.93
13414;BME280;6778;48.136;11.386;2023-02-13T11:17:04;97267.81;;;2.76;90.85
13414;BME280;6778;48.136;11.386;2023-02-13T11:19:39;97257.78;;;2.94;91.13
13414;BME280;6778;48.136;11.386;2023-02-13T11:22:28;97270.38;;;2.98;90.88
13414;BME280;6778;48.136;11.386;2023-02-13T11:25:06;97263.13;;;2.47;92.17
13414;BME280;6778;48.136;11.386;2023-02-13T11:27:38;97264.56;;;2.52;93.13
13414;BME280;6778;48.136;11.386;2023-02-13T11:30:30;97264.41;;;2.76;92.43
13414;BME280;6778;48.136;11.386;2023-02-13T11:33:04;97256.63;;;2.76;91.72
13414;BME280;6778;48.136;11.386;2023-02-13T11:35:36;97255.06;;;2.95;90.86
13414;BME280;6778;48.136;11.386;2023-02-13T11:38:15;97260.53;;;3.24;90.04
13414;BME280;6778;48.136;11.386;2023-02-13T11:41:05;97253.69;;;2.91;90.32
13414;BME280;6778;48.136;11.386;2023-02-13T11:43:45;97255.41;;;3.13;90.61
13414;BME280;6778;48.136;11.386;2023-02-13T11:46:20;97254.97;;;3.40;89.20
13414;BME280;6778;48.136;11.386;2023-02-13T11:48:57;97261.25;;;3.26;89.94
13414;BME280;6778;48.136;11.386;2023-02-13T11:51:40;97258.59;;;3.38;88.77
13414;BME280;6778;48.136;11.386;2023-02-13T11:54:29;97251.97;;;3.45;89.23
13414;BME280;6778;48.136;11.386;2023-02-13T11:57:19;97257.72;;;3.27;89.05
13414;BME280;6778;48.136;11.386;2023-02-13T11:59:52;97252.41;;;3.61;88.26
13414;BME280;6778;48.136;11.386;2023-02-13T12:02:24;97252.69;;;3.47;88.33
13414;BME280;6778;48.136;11.386;2023-02-13T12:05:14;97257.66;;;3.07;89.49
13414;BME280;6778;48.136;11.386;2023-02-13T12:07:46;97258.06;;;3.23;89.69
13414;BME280;6778;48.136;11.386;2023-02-13T12:10:21;97244.22;;;3.66;88.04
13414;BME280;6778;48.136;11.386;2023-02-13T12:12:57;97250.38;;;3.86;86.64
13414;BME280;6778;48.136;11.386;2023-02-13T12:15:32;97258.44;;;3.50;87.52
13414;BME280;6778;48.136;11.386;2023-02-13T12:18:10;97248.91;;;3.51;87.69
13414;BME280;6778;48.136;11.386;2023-02-13T12:20:55;97241.22;;;3.81;87.01
13414;BME280;6778;48.136;11.386;2023-02-13T12:23:40;97245.97;;;3.76;87.03
13414;BME280;6778;48.136;11.386;2023-02-13T12:26:25;97244.63;;;3.61;87.11
13414;BME280;6778;48.136;11.386;2023-02-13T12:29:33;97235.09;;;3.82;87.04
13414;BME280;6778;48.136;11.386;2023-02-13T12:32:17;97232.09;;;4.08;86.34
13414;BME280;6778;48.136;11.386;2023-02-13T12:35:09;97230.78;;;3.93;86.62
13414;BME280;6778;48.136;11.386;2023-02-13T12:37:59;97224.66;;;3.73;87.23
13414;BME280;6778;48.136;11.386;2023-02-13T12:40:42;97223.31;;;3.99;86.71
13414;BME280;6778;48.136;11.386;2023-02-13T12:43:41;97217.91;;;3.81;87.00
13414;BME280;6778;48.136;11.386;2023-02-13T12:46:26;97217.75;;;4.04;86.32
13414;BME280;6778;48.136;11.386;2023-02-13T12:49:12;97208.16;;;3.95;86.13
13414;BME280;6778;48.136;11.386;2023-02-13T12:51:52;97204.72;;;4.15;85.87
13414;BME280;6778;48.136;11.386;2023-02-13T12:54:38;97209.50;;;4.50;83.94
13414;BME280;6778;48.136;11.386;2023-02-13T12:57:26;97209.50;;;4.60;84.48
13414;BME280;6778;48.136;11.386;2023-02-13T13:00:17;97207.25;;;4.76;83.44
13414;BME280;6778;48.136;11.386;2023-02-13T13:06:24;97202.81;;;5.36;82.64
13414;BME280;6778;48.136;11.386;2023-02-13T13:09:34;97199.13;;;4.20;83.32
13414;BME280;6778;48.136;11.386;2023-02-13T13:12:26;97202.25;;;4.54;82.83
13414;BME280;6778;48.136;11.386;2023-02-13T13:15:05;97206.22;;;4.58;82.15
13414;BME280;6778;48.136;11.386;2023-02-13T13:17:50;97203.44;;;5.00;81.52
13414;BME280;6778;48.136;11.386;2023-02-13T13:20:53;97202.38;;;5.12;81.11
13414;BME280;6778;48.136;11.386;2023-02-13T13:23:32;97203.91;;;5.24;80.24
13414;BME280;6778;48.136;11.386;2023-02-13T13:26:16;97203.75;;;5.26;79.82
13414;BME280;6778;48.136;11.386;2023-02-13T13:28:54;97201.28;;;5.24;79.98
13414;BME280;6778;48.136;11.386;2023-02-13T13:31:27;97195.97;;;5.26;79.79
13414;BME280;6778;48.136;11.386;2023-02-13T13:34:01;97197.31;;;5.39;79.37
13414;BME280;6778;48.136;11.386;2023-02-13T13:36:39;97200.44;;;5.72;79.95
13414;BME280;6778;48.136;11.386;2023-02-13T13:39:32;97194.28;;;5.83;77.42
13414;BME280;6778;48.136;11.386;2023-02-13T13:42:12;97193.31;;;5.93;77.16
13414;BME280;6778;48.136;11.386;2023-02-13T13:45:21;97202.53;;;5.49;77.79
13414;BME280;6778;48.136;11.386;2023-02-13T13:51:11;97199.75;;;5.80;77.71
13414;BME280;6778;48.136;11.386;2023-02-13T13:54:17;97196.03;;;5.82;77.90
13414;BME280;6778;48.136;11.386;2023-02-13T13:57:05;97203.72;;;5.74;78.16
13414;BME280;6778;48.136;11.386;2023-02-13T13:59:58;97198.00;;;5.70;78.59
13414;BME280;6778;48.136;11.386;2023-02-13T14:02:41;97204.44;;;5.47;79.34
13414;BME280;6778;48.136;11.386;2023-02-13T14:05:25;97193.50;;;5.63;78.37